sensor_id;sensor_type;location;lat;lon;timestamp;pressure;altitude;pressure_sealevel;temperature;humidity
11415;BME280;5763;42.714;23.244;2023-08-06T00:00:28;93448.53;;;22.47;79.89
11415;BME280;5763;42.714;23.244;2023-08-06T00:02:55;93429.56;;;22.68;79.13
11415;BME280;5763;42.714;23.244;2023-08-06T00:05:22;93447.97;;;22.71;79.13
11415;BME280;5763;42.714;23.244;2023-08-06T00:07:50;93483.50;;;22.78;78.53
11415;BME280;5763;42.714;23.244;2023-08-06T00:10:17;93490.53;;;22.64;78.99
11415;BME280;5763;42.714;23.244;2023-08-06T00:12:44;93486.66;;;22.67;76.88
11415;BME280;5763;42.714;23.244;2023-08-06T00:15:11;93489.44;;;22.67;77.40
11415;BME280;5763;42.714;23.244;2023-08-06T00:17:38;93494.81;;;22.72;78.00
11415;BME280;5763;42.714;23.244;2023-08-06T00:20:06;93477.72;;;22.83;77.78
11415;BME280;5763;42.714;23.244;2023-08-06T00:22:34;93460.78;;;22.89;77.83
11415;BME280;5763;42.714;23.244;2023-08-06T00:25:03;93481.25;;;23.06;77.61
11415;BME280;5763;42.714;23.244;2023-08-06T00:27:30;93491.31;;;23.02;77.67
11415;BME280;5763;42.714;23.244;2023-08-06T00:29:58;93470.06;;;23.06;77.77
11415;BME280;5763;42.714;23.244;2023-08-06T00:32:24;93466.91;;;23.02;77.65
11415;BME280;5763;42.714;23.244;2023-08-06T00:34:51;93458.53;;;22.95;78.13
11415;BME280;5763;42.714;23.244;2023-08-06T00:37:18;93453.53;;;22.86;79.29
11415;BME280;5763;42.714;23.244;2023-08-06T00:39:45;93442.19;;;22.91;77.92
11415;BME280;5763;42.714;23.244;2023-08-06T00:42:13;93443.13;;;22.94;77.79
11415;BME280;5763;42.714;23.244;2023-08-06T00:44:41;93444.03;;;22.96;77.68
11415;BME280;5763;42.714;23.244;2023-08-06T00:47:08;93461.53;;;22.89;78.34
11415;BME280;5763;42.714;23.244;2023-08-06T00:49:36;93452.41;;;22.89;78.33
11415;BME280;5763;42.714;23.244;2023-08-06T00:52:04;93447.03;;;22.83;78.82
11415;BME280;5763;42.714;23.244;2023-08-06T00:54:31;93439.03;;;22.80;79.11
11415;BME280;5763;42.714;23.244;2023-08-06T00:56:59;93443.13;;;22.79;79.40
11415;BME280;5763;42.714;23.244;2023-08-06T00:59:29;93450.38;;;22.82;78.93
11415;BME280;5763;42.714;23.244;2023-08-06T01:01:57;93446.66;;;22.79;79.40
11415;BME280;5763;42.714;23.244;2023-08-06T01:04:24;93431.59;;;22.75;80.20
11415;BME280;5763;42.714;23.244;2023-08-06T01:07:00;93432.16;;;22.81;79.91
11415;BME280;5763;42.714;23.244;2023-08-06T01:09:35;93415.41;;;22.73;79.92
11415;BME280;5763;42.714;23.244;2023-08-06T01:12:06;93423.22;;;22.75;79.04
11415;BME280;5763;42.714;23.244;2023-08-06T01:14:47;93399.25;;;22.72;78.61
11415;BME280;5763;42.714;23.244;2023-08-06T01:17:17;93408.00;;;22.46;81.15
11415;BME280;5763;42.714;23.244;2023-08-06T01:19:45;93412.06;;;22.60;80.45
11415;BME280;5763;42.714;23.244;2023-08-06T01:22:13;93408.00;;;22.61;79.65
11415;BME280;5763;42.714;23.244;2023-08-06T01:24:41;93403.91;;;22.62;79.91
11415;BME280;5763;42.714;23.244;2023-08-06T01:27:19;93409.50;;;22.54;80.16
11415;BME280;5763;42.714;23.244;2023-08-06T01:29:52;93424.75;;;22.61;79.40
11415;BME280;5763;42.714;23.244;2023-08-06T01:32:24;93412.06;;;22.60;78.81
11415;BME280;5763;42.714;23.244;2023-08-06T01:34:52;93397.19;;;22.72;78.68
11415;BME280;5763;42.714;23.244;2023-08-06T01:37:22;93380.09;;;22.68;78.62
11415;BME280;5763;42.714;23.244;2023-08-06T01:39:49;93395.88;;;22.81;78.38
11415;BME280;5763;42.714;23.244;2023-08-06T01:42:16;93395.34;;;22.75;78.78
11415;BME280;5763;42.714;23.244;2023-08-06T01:44:43;93402.22;;;22.59;79.74
11415;BME280;5763;42.714;23.244;2023-08-06T01:47:10;93397.59;;;22.54;79.75
11415;BME280;5763;42.714;23.244;2023-08-06T01:49:36;93410.22;;;22.47;79.73
11415;BME280;5763;42.714;23.244;2023-08-06T01:52:04;93400.16;;;22.22;81.92
11415;BME280;5763;42.714;23.244;2023-08-06T01:54:32;93402.94;;;22.14;83.44
11415;BME280;5763;42.714;23.244;2023-08-06T01:56:59;93396.25;;;22.02;82.09
11415;BME280;5763;42.714;23.244;2023-08-06T01:59:25;93379.69;;;21.97;82.75
11415;BME280;5763;42.714;23.244;2023-08-06T02:01:52;93379.53;;;21.95;83.17
11415;BME280;5763;42.714;23.244;2023-08-06T02:04:19;93377.09;;;21.99;83.70
11415;BME280;5763;42.714;23.244;2023-08-06T02:06:45;93368.16;;;21.93;85.41
11415;BME280;5763;42.714;23.244;2023-08-06T02:09:12;93361.88;;;21.85;84.36
11415;BME280;5763;42.714;23.244;2023-08-06T02:11:40;93373.53;;;21.76;84.50
11415;BME280;5763;42.714;23.244;2023-08-06T02:14:07;93364.63;;;21.70;85.09
11415;BME280;5763;42.714;23.244;2023-08-06T02:16:34;93368.91;;;21.78;85.41
11415;BME280;5763;42.714;23.244;2023-08-06T02:19:00;93379.28;;;21.78;86.06
11415;BME280;5763;42.714;23.244;2023-08-06T02:21:27;93391.34;;;21.80;86.08
11415;BME280;5763;42.714;23.244;2023-08-06T02:23:54;93399.91;;;21.82;85.21
11415;BME280;5763;42.714;23.244;2023-08-06T02:26:21;93412.19;;;21.87;85.03
11415;BME280;5763;42.714;23.244;2023-08-06T02:28:49;93413.09;;;21.82;86.47
11415;BME280;5763;42.714;23.244;2023-08-06T02:31:15;93410.13;;;21.80;87.39
11415;BME280;5763;42.714;23.244;2023-08-06T02:33:42;93363.31;;;21.71;87.86
11415;BME280;5763;42.714;23.244;2023-08-06T02:36:09;93350.81;;;21.64;88.55
11415;BME280;5763;42.714;23.244;2023-08-06T02:38:36;93380.41;;;21.75;90.31
11415;BME280;5763;42.714;23.244;2023-08-06T02:41:03;93406.78;;;21.74;88.33
11415;BME280;5763;42.714;23.244;2023-08-06T02:43:29;93427.53;;;21.73;87.61
11415;BME280;5763;42.714;23.244;2023-08-06T02:45:58;93431.09;;;21.81;87.88
11415;BME280;5763;42.714;23.244;2023-08-06T02:48:25;93410.31;;;21.82;89.04
11415;BME280;5763;42.714;23.244;2023-08-06T02:50:52;93399.38;;;21.99;88.59
11415;BME280;5763;42.714;23.244;2023-08-06T02:53:19;93394.41;;;22.05;88.02
11415;BME280;5763;42.714;23.244;2023-08-06T02:55:46;93402.75;;;22.12;87.42
11415;BME280;5763;42.714;23.244;2023-08-06T02:58:14;93387.72;;;22.23;87.10
11415;BME280;5763;42.714;23.244;2023-08-06T03:00:41;93359.84;;;22.30;86.40
11415;BME280;5763;42.714;23.244;2023-08-06T03:03:09;93368.56;;;22.42;85.98
11415;BME280;5763;42.714;23.244;2023-08-06T03:05:36;93369.31;;;22.27;87.25
11415;BME280;5763;42.714;23.244;2023-08-06T03:08:03;93338.09;;;22.14;88.80
11415;BME280;5763;42.714;23.244;2023-08-06T03:10:30;93310.97;;;22.29;88.67
11415;BME280;5763;42.714;23.244;2023-08-06T03:12:57;93312.28;;;22.36;88.05
11415;BME280;5763;42.714;23.244;2023-08-06T03:15:23;93356.50;;;22.32;88.37
11415;BME280;5763;42.714;23.244;2023-08-06T03:17:50;93363.94;;;22.37;85.24
11415;BME280;5763;42.714;23.244;2023-08-06T03:20:18;93334.38;;;22.34;83.37
11415;BME280;5763;42.714;23.244;2023-08-06T03:22:45;93320.28;;;22.17;86.34
11415;BME280;5763;42.714;23.244;2023-08-06T03:25:11;93335.31;;;22.14;87.57
11415;BME280;5763;42.714;23.244;2023-08-06T03:27:38;93368.94;;;22.16;87.97
11415;BME280;5763;42.714;23.244;2023-08-06T03:30:06;93369.69;;;22.16;87.18
11415;BME280;5763;42.714;23.244;2023-08-06T03:32:33;93349.06;;;22.04;86.51
11415;BME280;5763;42.714;23.244;2023-08-06T03:35:00;93367.44;;;22.00;87.57
11415;BME280;5763;42.714;23.244;2023-08-06T03:37:28;93382.09;;;21.93;88.00
11415;BME280;5763;42.714;23.244;2023-08-06T03:39:55;93386.94;;;21.85;89.01
11415;BME280;5763;42.714;23.244;2023-08-06T03:42:21;93388.78;;;21.82;88.98
11415;BME280;5763;42.714;23.244;2023-08-06T03:44:48;93391.00;;;21.76;89.63
11415;BME280;5763;42.714;23.244;2023-08-06T03:47:15;93390.63;;;21.80;89.21
11415;BME280;5763;42.714;23.244;2023-08-06T03:49:41;93393.41;;;21.80;88.78
11415;BME280;5763;42.714;23.244;2023-08-06T03:52:08;93361.75;;;21.55;89.13
11415;BME280;5763;42.714;23.244;2023-08-06T03:54:36;93397.47;;;21.79;89.47
11415;BME280;5763;42.714;23.244;2023-08-06T03:57:04;93401.78;;;21.87;89.25
11415;BME280;5763;42.714;23.244;2023-08-06T03:59:31;93406.63;;;22.02;88.20
11415;BME280;5763;42.714;23.244;2023-08-06T04:01:58;93403.88;;;22.09;88.30
11415;BME280;5763;42.714;23.244;2023-08-06T04:04:24;93408.69;;;22.24;87.97
11415;BME280;5763;42.714;23.244;2023-08-06T04:06:51;93407.78;;;22.21;88.38
11415;BME280;5763;42.714;23.244;2023-08-06T04:09:18;93406.66;;;22.32;89.14
11415;BME280;5763;42.714;23.244;2023-08-06T04:11:46;93418.38;;;22.30;89.31
11415;BME280;5763;42.714;23.244;2023-08-06T04:14:13;93412.44;;;22.34;89.33
11415;BME280;5763;42.714;23.244;2023-08-06T04:16:39;93429.19;;;22.49;88.76
11415;BME280;5763;42.714;23.244;2023-08-06T04:19:06;93437.38;;;22.47;88.56
11415;BME280;5763;42.714;23.244;2023-08-06T04:21:33;93435.16;;;22.53;87.83
11415;BME280;5763;42.714;23.244;2023-08-06T04:24:00;93426.56;;;22.43;87.57
11415;BME280;5763;42.714;23.244;2023-08-06T04:26:26;93421.72;;;22.29;88.53
11415;BME280;5763;42.714;23.244;2023-08-06T04:28:54;93406.66;;;22.24;88.30
11415;BME280;5763;42.714;23.244;2023-08-06T04:31:21;93405.75;;;22.29;88.14
11415;BME280;5763;42.714;23.244;2023-08-06T04:33:48;93398.31;;;22.39;87.47
11415;BME280;5763;42.714;23.244;2023-08-06T04:36:15;93403.16;;;22.46;87.44
11415;BME280;5763;42.714;23.244;2023-08-06T04:38:42;93401.13;;;22.62;86.69
11415;BME280;5763;42.714;23.244;2023-08-06T04:41:10;93402.97;;;22.67;85.44
11415;BME280;5763;42.714;23.244;2023-08-06T04:43:37;93397.94;;;22.65;86.31
11415;BME280;5763;42.714;23.244;2023-08-06T04:46:05;93385.50;;;22.66;86.75
11415;BME280;5763;42.714;23.244;2023-08-06T04:48:32;93382.31;;;22.70;86.52
11415;BME280;5763;42.714;23.244;2023-08-06T04:50:58;93371.53;;;22.66;86.70
11415;BME280;5763;42.714;23.244;2023-08-06T04:53:25;93370.06;;;22.65;86.96
11415;BME280;5763;42.714;23.244;2023-08-06T04:55:52;93350.38;;;22.48;86.95
11415;BME280;5763;42.714;23.244;2023-08-06T04:58:19;93354.81;;;22.44;87.54
11415;BME280;5763;42.714;23.244;2023-08-06T05:00:45;93344.03;;;22.33;88.73
11415;BME280;5763;42.714;23.244;2023-08-06T05:03:13;93331.03;;;22.28;87.53
11415;BME280;5763;42.714;23.244;2023-08-06T05:05:40;93339.56;;;22.22;87.06
11415;BME280;5763;42.714;23.244;2023-08-06T05:08:07;93349.63;;;22.18;89.56
11415;BME280;5763;42.714;23.244;2023-08-06T05:10:34;93344.41;;;22.07;90.30
11415;BME280;5763;42.714;23.244;2023-08-06T05:13:00;93353.13;;;21.96;90.09
11415;BME280;5763;42.714;23.244;2023-08-06T05:15:27;93359.09;;;22.00;91.10
11415;BME280;5763;42.714;23.244;2023-08-06T05:17:54;93360.75;;;21.95;91.01
11415;BME280;5763;42.714;23.244;2023-08-06T05:20:22;93366.69;;;21.99;91.59
11415;BME280;5763;42.714;23.244;2023-08-06T05:22:49;93362.22;;;22.04;91.59
11415;BME280;5763;42.714;23.244;2023-08-06T05:25:16;93353.31;;;21.98;91.26
11415;BME280;5763;42.714;23.244;2023-08-06T05:27:43;93351.28;;;21.98;92.50
11415;BME280;5763;42.714;23.244;2023-08-06T05:30:10;93347.75;;;21.98;91.09
11415;BME280;5763;42.714;23.244;2023-08-06T05:32:37;93320.63;;;21.83;90.32
11415;BME280;5763;42.714;23.244;2023-08-06T05:35:04;93339.75;;;21.94;87.90
11415;BME280;5763;42.714;23.244;2023-08-06T05:37:33;93348.88;;;22.10;88.13
11415;BME280;5763;42.714;23.244;2023-08-06T05:39:59;93348.69;;;22.15;88.03
11415;BME280;5763;42.714;23.244;2023-08-06T05:42:27;93349.25;;;22.21;87.32
11415;BME280;5763;42.714;23.244;2023-08-06T05:44:53;93350.91;;;22.32;85.99
11415;BME280;5763;42.714;23.244;2023-08-06T05:47:20;93340.88;;;22.36;87.38
11415;BME280;5763;42.714;23.244;2023-08-06T05:49:47;93352.25;;;22.53;86.61
11415;BME280;5763;42.714;23.244;2023-08-06T05:52:14;93367.06;;;22.63;86.58
11415;BME280;5763;42.714;23.244;2023-08-06T05:54:42;93359.44;;;22.71;85.35
11415;BME280;5763;42.714;23.244;2023-08-06T05:57:08;93361.84;;;22.75;84.20
11415;BME280;5763;42.714;23.244;2023-08-06T05:59:35;93361.31;;;22.69;79.46
11415;BME280;5763;42.714;23.244;2023-08-06T06:02:02;93354.84;;;22.51;78.75
11415;BME280;5763;42.714;23.244;2023-08-06T06:04:29;93390.69;;;22.77;78.17
11415;BME280;5763;42.714;23.244;2023-08-06T06:06:56;93377.84;;;22.89;78.25
11415;BME280;5763;42.714;23.244;2023-08-06T06:09:22;93390.28;;;22.88;78.10
11415;BME280;5763;42.714;23.244;2023-08-06T06:11:51;93388.63;;;22.93;76.01
11415;BME280;5763;42.714;23.244;2023-08-06T06:14:18;93394.91;;;23.01;76.08
11415;BME280;5763;42.714;23.244;2023-08-06T06:16:45;93394.19;;;23.00;76.44
11415;BME280;5763;42.714;23.244;2023-08-06T06:19:12;93405.75;;;22.89;75.25
11415;BME280;5763;42.714;23.244;2023-08-06T06:21:38;93418.56;;;22.92;76.05
11415;BME280;5763;42.714;23.244;2023-08-06T06:24:05;93405.38;;;22.78;73.44
11415;BME280;5763;42.714;23.244;2023-08-06T06:26:33;93417.63;;;22.90;74.47
11415;BME280;5763;42.714;23.244;2023-08-06T06:29:01;93421.91;;;22.91;76.77
11415;BME280;5763;42.714;23.244;2023-08-06T06:31:28;93420.59;;;22.99;76.67
11415;BME280;5763;42.714;23.244;2023-08-06T06:33:55;93429.50;;;23.13;76.57
11415;BME280;5763;42.714;23.244;2023-08-06T06:36:21;93417.59;;;23.20;76.13
11415;BME280;5763;42.714;23.244;2023-08-06T06:38:49;93433.22;;;23.30;77.00
11415;BME280;5763;42.714;23.244;2023-08-06T06:41:16;93430.03;;;23.34;76.90
11415;BME280;5763;42.714;23.244;2023-08-06T06:43:42;93438.03;;;23.30;76.21
11415;BME280;5763;42.714;23.244;2023-08-06T06:46:11;93437.28;;;23.29;75.83
11415;BME280;5763;42.714;23.244;2023-08-06T06:48:37;93451.44;;;23.39;75.47
11415;BME280;5763;42.714;23.244;2023-08-06T06:51:04;93441.22;;;23.34;76.83
11415;BME280;5763;42.714;23.244;2023-08-06T06:53:31;93434.13;;;23.33;76.95
11415;BME280;5763;42.714;23.244;2023-08-06T06:56:02;93445.44;;;23.50;75.77
11415;BME280;5763;42.714;23.244;2023-08-06T06:58:29;93459.41;;;23.50;68.80
11415;BME280;5763;42.714;23.244;2023-08-06T07:00:55;93462.56;;;23.54;67.41
11415;BME280;5763;42.714;23.244;2023-08-06T07:03:23;93464.44;;;23.44;65.12
11415;BME280;5763;42.714;23.244;2023-08-06T07:05:50;93475.63;;;23.36;65.42
11415;BME280;5763;42.714;23.244;2023-08-06T07:08:17;93473.03;;;23.31;65.70
11415;BME280;5763;42.714;23.244;2023-08-06T07:10:44;93474.34;;;23.30;65.36
11415;BME280;5763;42.714;23.244;2023-08-06T07:13:11;93478.63;;;23.23;65.91
11415;BME280;5763;42.714;23.244;2023-08-06T07:15:37;93477.91;;;23.08;65.67
11415;BME280;5763;42.714;23.244;2023-08-06T07:18:04;93483.66;;;23.10;66.12
11415;BME280;5763;42.714;23.244;2023-08-06T07:20:32;93470.06;;;23.06;67.25
11415;BME280;5763;42.714;23.244;2023-08-06T07:23:00;93481.03;;;23.19;67.61
11415;BME280;5763;42.714;23.244;2023-08-06T07:25:27;93487.19;;;23.33;66.63
11415;BME280;5763;42.714;23.244;2023-08-06T07:27:54;93452.56;;;23.21;65.46
11415;BME280;5763;42.714;23.244;2023-08-06T07:30:22;93481.19;;;23.51;65.37
11415;BME280;5763;42.714;23.244;2023-08-06T07:32:48;93482.81;;;23.62;65.87
11415;BME280;5763;42.714;23.244;2023-08-06T07:35:15;93486.31;;;23.77;67.28
11415;BME280;5763;42.714;23.244;2023-08-06T07:37:43;93475.78;;;24.00;67.17
11415;BME280;5763;42.714;23.244;2023-08-06T07:40:10;93475.19;;;24.09;64.81
11415;BME280;5763;42.714;23.244;2023-08-06T07:42:37;93477.88;;;24.32;64.42
11415;BME280;5763;42.714;23.244;2023-08-06T07:45:05;93479.41;;;24.50;63.05
11415;BME280;5763;42.714;23.244;2023-08-06T07:47:32;93479.59;;;24.52;61.90
11415;BME280;5763;42.714;23.244;2023-08-06T07:49:59;93475.63;;;24.62;62.54
11415;BME280;5763;42.714;23.244;2023-08-06T07:52:26;93472.28;;;24.56;62.32
11415;BME280;5763;42.714;23.244;2023-08-06T07:54:54;93467.44;;;24.57;63.23
11415;BME280;5763;42.714;23.244;2023-08-06T07:57:21;93471.84;;;24.67;63.36
11415;BME280;5763;42.714;23.244;2023-08-06T07:59:47;93470.47;;;24.76;63.75
11415;BME280;5763;42.714;23.244;2023-08-06T08:02:14;93459.56;;;24.87;64.29
11415;BME280;5763;42.714;23.244;2023-08-06T08:04:41;93466.41;;;24.77;60.41
11415;BME280;5763;42.714;23.244;2023-08-06T08:07:10;93456.13;;;24.79;60.74
11415;BME280;5763;42.714;23.244;2023-08-06T08:09:37;93460.25;;;24.95;59.72
11415;BME280;5763;42.714;23.244;2023-08-06T08:12:05;93466.53;;;25.03;59.41
11415;BME280;5763;42.714;23.244;2023-08-06T08:14:32;93471.69;;;25.14;60.50
11415;BME280;5763;42.714;23.244;2023-08-06T08:17:01;93466.66;;;25.13;60.39
11415;BME280;5763;42.714;23.244;2023-08-06T08:19:28;93463.50;;;25.09;58.90
11415;BME280;5763;42.714;23.244;2023-08-06T08:21:55;93468.34;;;25.08;58.90
11415;BME280;5763;42.714;23.244;2023-08-06T08:24:22;93466.53;;;25.03;59.12
11415;BME280;5763;42.714;23.244;2023-08-06T08:26:49;93457.91;;;25.09;58.04
11415;BME280;5763;42.714;23.244;2023-08-06T08:29:19;93463.94;;;25.22;59.25
11415;BME280;5763;42.714;23.244;2023-08-06T08:31:46;93458.84;;;25.28;60.17
11415;BME280;5763;42.714;23.244;2023-08-06T08:34:15;93449.03;;;25.37;60.04
11415;BME280;5763;42.714;23.244;2023-08-06T08:36:42;93452.94;;;25.41;58.98
11415;BME280;5763;42.714;23.244;2023-08-06T08:39:09;93464.47;;;25.62;60.17
11415;BME280;5763;42.714;23.244;2023-08-06T08:41:36;93469.00;;;25.75;57.14
11415;BME280;5763;42.714;23.244;2023-08-06T08:44:07;93463.22;;;25.90;57.20
11415;BME280;5763;42.714;23.244;2023-08-06T08:46:37;93457.53;;;25.97;57.12
11415;BME280;5763;42.714;23.244;2023-08-06T08:49:05;93461.31;;;26.09;57.35
11415;BME280;5763;42.714;23.244;2023-08-06T08:51:33;93453.47;;;26.08;56.57
11415;BME280;5763;42.714;23.244;2023-08-06T08:53:59;93443.53;;;26.24;57.11
11415;BME280;5763;42.714;23.244;2023-08-06T08:56:29;93449.22;;;26.33;55.34
11415;BME280;5763;42.714;23.244;2023-08-06T08:58:56;93447.34;;;26.45;55.34
11415;BME280;5763;42.714;23.244;2023-08-06T09:01:23;93430.88;;;26.59;56.80
11415;BME280;5763;42.714;23.244;2023-08-06T09:03:51;93443.75;;;26.62;56.17
11415;BME280;5763;42.714;23.244;2023-08-06T09:06:20;93439.75;;;26.65;55.15
11415;BME280;5763;42.714;23.244;2023-08-06T09:08:56;93429.44;;;26.67;53.10
11415;BME280;5763;42.714;23.244;2023-08-06T09:11:27;93442.22;;;26.87;54.01
11415;BME280;5763;42.714;23.244;2023-08-06T09:13:57;93433.53;;;26.93;53.71
11415;BME280;5763;42.714;23.244;2023-08-06T09:16:25;93411.88;;;26.76;50.72
11415;BME280;5763;42.714;23.244;2023-08-06T09:18:53;93441.78;;;26.91;49.27
11415;BME280;5763;42.714;23.244;2023-08-06T09:21:19;93435.06;;;27.13;49.38
11415;BME280;5763;42.714;23.244;2023-08-06T09:23:46;93432.56;;;27.17;48.18
11415;BME280;5763;42.714;23.244;2023-08-06T09:26:13;93426.66;;;27.32;46.53
11415;BME280;5763;42.714;23.244;2023-08-06T09:28:40;93431.88;;;27.45;46.68
11415;BME280;5763;42.714;23.244;2023-08-06T09:31:08;93426.41;;;27.66;45.81
11415;BME280;5763;42.714;23.244;2023-08-06T09:33:36;93422.59;;;27.90;45.04
11415;BME280;5763;42.714;23.244;2023-08-06T09:36:11;93421.06;;;28.08;43.63
11415;BME280;5763;42.714;23.244;2023-08-06T09:38:39;93427.13;;;28.04;41.21
11415;BME280;5763;42.714;23.244;2023-08-06T09:41:06;93412.50;;;27.96;41.67
11415;BME280;5763;42.714;23.244;2023-08-06T09:43:39;93416.22;;;27.99;42.18
11415;BME280;5763;42.714;23.244;2023-08-06T09:46:11;93414.47;;;28.34;42.17
11415;BME280;5763;42.714;23.244;2023-08-06T09:48:40;93421.28;;;28.50;40.31
11415;BME280;5763;42.714;23.244;2023-08-06T09:51:08;93416.16;;;28.67;39.94
11415;BME280;5763;42.714;23.244;2023-08-06T09:53:37;93428.81;;;28.57;40.22
11415;BME280;5763;42.714;23.244;2023-08-06T09:56:04;93413.50;;;28.10;40.76
11415;BME280;5763;42.714;23.244;2023-08-06T09:58:32;93415.59;;;28.10;41.67
11415;BME280;5763;42.714;23.244;2023-08-06T10:00:59;93421.28;;;28.50;41.00
11415;BME280;5763;42.714;23.244;2023-08-06T10:03:27;93419.88;;;28.70;41.87
11415;BME280;5763;42.714;23.244;2023-08-06T10:05:55;93416.09;;;28.56;43.80
11415;BME280;5763;42.714;23.244;2023-08-06T10:08:23;93418.44;;;28.59;41.88
11415;BME280;5763;42.714;23.244;2023-08-06T10:10:51;93424.94;;;28.62;41.55
11415;BME280;5763;42.714;23.244;2023-08-06T10:13:20;93433.44;;;28.52;44.81
11415;BME280;5763;42.714;23.244;2023-08-06T10:15:48;93435.97;;;28.29;44.86
11415;BME280;5763;42.714;23.244;2023-08-06T10:18:16;93437.06;;;28.05;45.06
11415;BME280;5763;42.714;23.244;2023-08-06T10:20:46;93430.72;;;27.86;46.17
11415;BME280;5763;42.714;23.244;2023-08-06T10:23:13;93428.75;;;27.69;44.53
11415;BME280;5763;42.714;23.244;2023-08-06T10:25:43;93439.13;;;27.67;45.34
11415;BME280;5763;42.714;23.244;2023-08-06T10:28:11;93432.19;;;27.49;46.87
11415;BME280;5763;42.714;23.244;2023-08-06T10:30:43;93434.81;;;27.47;47.23
11415;BME280;5763;42.714;23.244;2023-08-06T10:33:10;93434.22;;;27.48;48.12
11415;BME280;5763;42.714;23.244;2023-08-06T10:35:40;93443.56;;;27.41;48.48
11415;BME280;5763;42.714;23.244;2023-08-06T10:38:10;93442.06;;;27.31;46.51
11415;BME280;5763;42.714;23.244;2023-08-06T10:40:39;93450.63;;;27.23;47.60
11415;BME280;5763;42.714;23.244;2023-08-06T10:43:06;93452.22;;;27.17;47.22
11415;BME280;5763;42.714;23.244;2023-08-06T10:45:37;93451.88;;;27.03;48.07
11415;BME280;5763;42.714;23.244;2023-08-06T10:48:04;93451.88;;;27.03;47.18
11415;BME280;5763;42.714;23.244;2023-08-06T10:50:32;93456.59;;;27.01;46.45
11415;BME280;5763;42.714;23.244;2023-08-06T10:53:04;93459.25;;;26.99;46.21
11415;BME280;5763;42.714;23.244;2023-08-06T10:55:31;93463.63;;;26.83;46.26
11415;BME280;5763;42.714;23.244;2023-08-06T10:57:58;93466.75;;;26.87;45.97
11415;BME280;5763;42.714;23.244;2023-08-06T11:00:25;93473.84;;;26.88;48.07
11415;BME280;5763;42.714;23.244;2023-08-06T11:02:53;93496.50;;;26.63;50.41
11415;BME280;5763;42.714;23.244;2023-08-06T11:05:20;93488.72;;;26.28;52.15
11415;BME280;5763;42.714;23.244;2023-08-06T11:07:47;93493.44;;;25.99;53.99
11415;BME280;5763;42.714;23.244;2023-08-06T11:10:16;93487.16;;;25.74;56.72
11415;BME280;5763;42.714;23.244;2023-08-06T11:12:43;93459.38;;;25.51;57.19
11415;BME280;5763;42.714;23.244;2023-08-06T11:15:10;93466.03;;;25.39;58.43
11415;BME280;5763;42.714;23.244;2023-08-06T11:17:40;93478.03;;;25.32;59.28
11415;BME280;5763;42.714;23.244;2023-08-06T11:20:09;93480.53;;;25.28;57.99
11415;BME280;5763;42.714;23.244;2023-08-06T11:22:37;93469.63;;;25.32;59.46
11415;BME280;5763;42.714;23.244;2023-08-06T11:25:06;93487.47;;;25.44;55.99
11415;BME280;5763;42.714;23.244;2023-08-06T11:27:33;93484.03;;;25.53;55.22
11415;BME280;5763;42.714;23.244;2023-08-06T11:30:00;93494.81;;;25.56;53.67
11415;BME280;5763;42.714;23.244;2023-08-06T11:32:26;93502.81;;;25.60;52.96
11415;BME280;5763;42.714;23.244;2023-08-06T11:34:54;93484.31;;;25.57;54.03
11415;BME280;5763;42.714;23.244;2023-08-06T11:37:23;93472.44;;;25.83;53.17
11415;BME280;5763;42.714;23.244;2023-08-06T11:39:51;93470.44;;;26.27;52.46
11415;BME280;5763;42.714;23.244;2023-08-06T11:42:18;93473.53;;;26.84;51.02
11415;BME280;5763;42.714;23.244;2023-08-06T11:44:44;93479.69;;;27.09;48.56
11415;BME280;5763;42.714;23.244;2023-08-06T11:47:15;93458.91;;;27.21;46.27
11415;BME280;5763;42.714;23.244;2023-08-06T11:49:44;93464.44;;;27.67;45.52
11415;BME280;5763;42.714;23.244;2023-08-06T11:52:13;93454.50;;;27.66;44.77
11415;BME280;5763;42.714;23.244;2023-08-06T11:54:42;93452.47;;;28.14;43.63
11415;BME280;5763;42.714;23.244;2023-08-06T11:57:09;93451.06;;;28.53;43.17
11415;BME280;5763;42.714;23.244;2023-08-06T11:59:37;93451.66;;;28.51;43.54
11415;BME280;5763;42.714;23.244;2023-08-06T12:02:05;93459.38;;;28.32;41.92
11415;BME280;5763;42.714;23.244;2023-08-06T12:04:58;93434.84;;;28.04;42.56
11415;BME280;5763;42.714;23.244;2023-08-06T12:07:28;93448.19;;;27.94;43.46
11415;BME280;5763;42.714;23.244;2023-08-06T12:09:56;93451.44;;;27.81;43.84
11415;BME280;5763;42.714;23.244;2023-08-06T12:12:23;93436.47;;;27.59;44.61
11415;BME280;5763;42.714;23.244;2023-08-06T12:14:50;93436.28;;;27.29;45.15
11415;BME280;5763;42.714;23.244;2023-08-06T12:17:17;93452.06;;;27.15;47.35
11415;BME280;5763;42.714;23.244;2023-08-06T12:19:45;93438.25;;;27.00;48.42
11415;BME280;5763;42.714;23.244;2023-08-06T12:22:13;93437.63;;;27.47;47.58
11415;BME280;5763;42.714;23.244;2023-08-06T12:24:41;93439.03;;;27.84;45.30
11415;BME280;5763;42.714;23.244;2023-08-06T12:27:09;93434.97;;;27.58;46.99
11415;BME280;5763;42.714;23.244;2023-08-06T12:29:37;93435.84;;;27.42;46.18
11415;BME280;5763;42.714;23.244;2023-08-06T12:32:07;93438.97;;;27.27;45.97
11415;BME280;5763;42.714;23.244;2023-08-06T12:34:33;93435.38;;;27.17;45.20
11415;BME280;5763;42.714;23.244;2023-08-06T12:37:00;93442.72;;;27.03;47.55
11415;BME280;5763;42.714;23.244;2023-08-06T12:39:27;93445.22;;;26.99;49.10
11415;BME280;5763;42.714;23.244;2023-08-06T12:41:54;93436.00;;;26.79;48.25
11415;BME280;5763;42.714;23.244;2023-08-06T12:44:24;93445.66;;;26.59;47.65
11415;BME280;5763;42.714;23.244;2023-08-06T12:46:51;93446.47;;;26.52;48.98
11415;BME280;5763;42.714;23.244;2023-08-06T12:49:18;93434.63;;;26.44;46.43
11415;BME280;5763;42.714;23.244;2023-08-06T12:51:46;93446.63;;;26.45;48.04
11415;BME280;5763;42.714;23.244;2023-08-06T12:54:13;93440.03;;;26.33;46.10
11415;BME280;5763;42.714;23.244;2023-08-06T12:56:39;93435.19;;;26.33;46.34
11415;BME280;5763;42.714;23.244;2023-08-06T12:59:06;93429.56;;;26.33;46.56
11415;BME280;5763;42.714;23.244;2023-08-06T13:01:34;93435.91;;;26.34;47.87